METAR Data
IDs: Format: Raw Decoded Include TAF

Data at: 0319 UTC 27 Jan 2022

METAR for:KRCV (Del Norte Muni, CO, US)
Text:KRCV 270255Z AUTO 28008KT 10SM CLR M12/M14 A3014 RMK AO2 T11211143
Temperature:-12.1°C ( 10°F)
Dewpoint:-14.3°C ( 6°F) [RH = 84%]
Pressure (altimeter):30.14 inches Hg (1020.7 mb)
Winds:from the W (280 degrees) at 9 MPH (8 knots; 4.1 m/s)
Visibility:10 or more sm (16+ km)
Ceiling:at least 12,000 feet AGL
Clouds:sky clear below 12,000 feet AGL
QC Flag:automated observation with no human augmentation